createdAt,value
2019-04-28T00:01:14.909Z,81.07
2019-04-28T00:03:43.797Z,81.54
2019-04-28T00:06:13.106Z,81.44
2019-04-28T00:08:42.891Z,81.95
2019-04-28T00:11:12.400Z,82.19
2019-04-28T00:13:41.912Z,81.86
2019-04-28T00:16:11.939Z,81.98
2019-04-28T00:18:41.686Z,82.01
2019-04-28T00:21:20.771Z,81.62
2019-04-28T00:24:07.516Z,82.22
2019-04-28T00:26:37.918Z,81.96
2019-04-28T00:29:07.407Z,82.14
2019-04-28T00:31:36.211Z,81.73
2019-04-28T00:34:05.512Z,82.14
2019-04-28T00:36:35.529Z,81.96
2019-04-28T00:39:05.649Z,82.27
2019-04-28T00:41:34.538Z,81.90
2019-04-28T00:44:03.437Z,81.51
2019-04-28T00:46:36.935Z,81.67
2019-04-28T00:49:05.929Z,81.88
2019-04-28T00:51:34.819Z,82.99
2019-04-28T00:54:03.720Z,82.56
2019-04-28T00:56:32.605Z,80.80
2019-04-28T00:59:01.766Z,81.74
2019-04-28T01:01:48.721Z,82.93
2019-04-28T01:04:17.707Z,82.23
2019-04-28T01:06:48.134Z,81.76
2019-04-28T01:09:17.332Z,81.91
2019-04-28T01:11:46.224Z,81.87
2019-04-28T01:14:15.114Z,81.70
2019-04-28T01:16:45.541Z,82.29
2019-04-28T01:19:20.247Z,83.30
2019-04-28T01:22:10.269Z,83.61
2019-04-28T01:24:41.001Z,82.68
2019-04-28T01:27:15.822Z,82.95
2019-04-28T01:29:44.718Z,82.05
2019-04-28T01:32:17.901Z,82.50
2019-04-28T01:34:46.792Z,82.30
2019-04-28T01:37:15.683Z,81.54
2019-04-28T01:39:44.575Z,82.11
2019-04-28T01:42:13.466Z,82.13
2019-04-28T01:44:42.357Z,81.61
2019-04-28T01:47:11.759Z,82.33
2019-04-28T01:49:40.731Z,81.53
2019-04-28T01:52:10.486Z,81.71
2019-04-28T01:54:40.307Z,80.83
2019-04-28T01:57:10.200Z,81.55
2019-04-28T01:59:40.306Z,81.39
2019-04-28T02:02:10.636Z,81.81
2019-04-28T02:04:40.245Z,81.11
2019-04-28T02:07:11.069Z,80.37
2019-04-28T02:09:40.074Z,79.76
2019-04-28T02:12:10.625Z,79.78
2019-04-28T02:14:40.370Z,83.49
2019-04-28T02:17:10.742Z,81.28
2019-04-28T02:19:40.976Z,80.88
2019-04-28T02:22:12.824Z,81.12
2019-04-28T02:24:41.716Z,81.44
2019-04-28T02:27:12.040Z,80.68
2019-04-28T02:29:41.730Z,82.40
2019-04-28T02:32:12.998Z,80.50
2019-04-28T02:34:42.014Z,80.71
2019-04-28T02:37:12.831Z,80.54
2019-04-28T02:39:41.719Z,82.05
2019-04-28T02:42:11.636Z,82.59
2019-04-28T02:44:40.813Z,81.25
2019-04-28T02:47:11.299Z,82.51
2019-04-28T02:49:50.698Z,83.27
2019-04-28T02:52:24.114Z,81.99
2019-04-28T02:54:52.986Z,81.81
2019-04-28T02:57:21.890Z,80.69
2019-04-28T02:59:51.154Z,82.20
2019-04-28T03:02:20.984Z,81.87
2019-04-28T03:04:50.850Z,82.30
2019-04-28T03:07:21.672Z,82.08
2019-04-28T03:09:52.013Z,81.21
2019-04-28T03:12:21.738Z,80.24
2019-04-28T03:14:50.897Z,81.20
2019-04-28T03:17:20.737Z,80.86
2019-04-28T03:19:51.639Z,81.18
2019-04-28T03:22:20.825Z,80.68
2019-04-28T03:24:51.305Z,81.21
2019-04-28T03:27:33.766Z,80.76
2019-04-28T03:30:13.233Z,80.32
2019-04-28T03:32:52.231Z,80.81
2019-04-28T03:35:13.562Z,79.94
2019-04-28T03:37:42.536Z,79.42
2019-04-28T03:40:12.039Z,78.95
2019-04-28T03:42:41.264Z,79.58
2019-04-28T03:45:12.230Z,79.87
2019-04-28T03:47:41.087Z,79.77
2019-04-28T03:50:10.715Z,80.02
2019-04-28T03:52:41.463Z,79.98
2019-04-28T03:55:12.866Z,79.91
2019-04-28T03:57:44.217Z,80.66
2019-04-28T04:00:14.035Z,78.80
2019-04-28T04:02:42.924Z,80.05
2019-04-28T04:05:12.465Z,80.67
2019-04-28T04:07:43.283Z,80.62
2019-04-28T04:10:20.683Z,81.00
2019-04-28T04:12:51.206Z,80.83
2019-04-28T04:15:41.330Z,81.42
2019-04-28T04:18:16.004Z,81.25
2019-04-28T04:20:44.890Z,82.91
2019-04-28T04:23:13.786Z,81.59
2019-04-28T04:25:42.677Z,81.63
2019-04-28T04:28:12.695Z,81.98
2019-04-28T04:30:41.587Z,80.98
2019-04-28T04:33:11.393Z,80.96
2019-04-28T04:35:41.095Z,81.18
2019-04-28T04:38:11.845Z,80.96
2019-04-28T04:40:41.472Z,81.18
2019-04-28T04:43:11.506Z,80.50
2019-04-28T04:45:40.768Z,80.78
2019-04-28T04:48:11.599Z,79.82
2019-04-28T04:50:41.301Z,79.72
2019-04-28T04:53:11.257Z,81.20
2019-04-28T04:55:41.009Z,81.65
2019-04-28T04:58:10.708Z,81.66
2019-04-28T05:00:56.638Z,81.38
2019-04-28T05:03:33.310Z,81.67
2019-04-28T05:06:03.737Z,81.43
2019-04-28T05:08:32.631Z,80.69
2019-04-28T05:11:01.520Z,79.90
2019-04-28T05:13:30.411Z,80.30
2019-04-28T05:15:59.859Z,81.77
2019-04-28T05:18:29.738Z,81.52
2019-04-28T05:20:59.485Z,80.58
2019-04-28T05:23:36.216Z,81.72
2019-04-28T05:26:08.028Z,81.71
2019-04-28T05:28:36.942Z,82.20
2019-04-28T05:31:06.166Z,81.55
2019-04-28T05:33:35.058Z,82.07
2019-04-28T05:36:03.957Z,81.94
2019-04-28T05:38:32.847Z,82.32
2019-04-28T05:41:02.806Z,82.11
2019-04-28T05:43:31.955Z,81.98
2019-04-28T05:46:00.845Z,81.52
2019-04-28T05:48:47.555Z,82.18
2019-04-28T05:51:23.509Z,81.56
2019-04-28T05:53:59.670Z,81.84
2019-04-28T05:56:39.732Z,81.67
2019-04-28T05:59:21.399Z,80.96
2019-04-28T06:01:58.065Z,81.20
2019-04-28T06:04:30.277Z,79.83
2019-04-28T06:07:00.275Z,81.08
2019-04-28T06:09:30.702Z,80.01
2019-04-28T06:12:00.122Z,80.07
2019-04-28T06:14:30.044Z,80.52
2019-04-28T06:17:00.483Z,80.01
2019-04-28T06:19:30.211Z,80.07
2019-04-28T06:21:59.260Z,79.01
2019-04-28T06:24:28.145Z,79.37
2019-04-28T06:26:57.036Z,78.30
2019-04-28T06:29:25.927Z,78.91
2019-04-28T06:31:54.818Z,79.31
2019-04-28T06:34:23.709Z,79.75
2019-04-28T06:36:52.601Z,79.92
2019-04-28T06:39:21.492Z,80.21
2019-04-28T06:41:50.389Z,78.97
2019-04-28T06:44:19.377Z,79.56
2019-04-28T06:46:48.370Z,80.18
2019-04-28T06:49:17.262Z,79.32
2019-04-28T06:51:46.256Z,78.54
2019-04-28T06:54:15.150Z,79.08
2019-04-28T06:56:44.043Z,77.14
2019-04-28T06:59:12.930Z,78.42
2019-04-28T07:01:41.963Z,76.58
2019-04-28T07:04:11.123Z,75.74
2019-04-28T07:06:41.041Z,75.86
2019-04-28T07:09:10.360Z,75.51
2019-04-28T07:11:39.439Z,74.36
2019-04-28T07:14:08.738Z,73.87
2019-04-28T07:16:37.836Z,72.67
2019-04-28T07:19:07.851Z,73.06
2019-04-28T07:21:41.119Z,72.90
2019-04-28T07:24:10.251Z,70.17
2019-04-28T07:26:39.252Z,69.69
2019-04-28T07:29:08.739Z,70.03
2019-04-28T07:31:37.632Z,72.37
2019-04-28T07:34:06.830Z,69.31
2019-04-28T07:36:35.824Z,71.41
2019-04-28T07:39:07.015Z,72.31
2019-04-28T07:41:35.858Z,71.84
2019-04-28T07:44:05.080Z,71.98
2019-04-28T07:46:33.948Z,72.01
2019-04-28T07:49:02.942Z,71.23
2019-04-28T07:51:39.311Z,72.38
2019-04-28T07:54:10.003Z,70.58
2019-04-28T07:56:38.933Z,72.01
2019-04-28T07:59:07.910Z,70.15
2019-04-28T08:01:36.898Z,69.04
2019-04-28T08:04:05.705Z,68.22
2019-04-28T08:06:34.699Z,67.09
2019-04-28T08:09:05.381Z,66.84
2019-04-28T08:11:34.224Z,65.37
2019-04-28T08:14:03.216Z,64.01
2019-04-28T08:16:32.107Z,66.69
2019-04-28T08:19:01.002Z,62.89
2019-04-28T08:21:29.894Z,63.38
2019-04-28T08:23:58.677Z,67.11
2019-04-28T08:26:27.591Z,69.88
2019-04-28T08:28:56.460Z,74.07
2019-04-28T08:31:26.889Z,78.34
2019-04-28T08:34:02.835Z,79.07
2019-04-28T08:36:32.147Z,75.58
2019-04-28T08:39:01.038Z,76.75
2019-04-28T08:41:29.989Z,77.75
2019-04-28T08:43:58.920Z,78.55
2019-04-28T08:46:27.812Z,80.14
2019-04-28T08:48:56.703Z,80.38
2019-04-28T08:51:25.595Z,79.47
2019-04-28T08:53:54.485Z,78.94
2019-04-28T08:56:23.480Z,78.59
2019-04-28T08:58:52.370Z,73.96
2019-04-28T09:01:21.367Z,73.28
2019-04-28T09:03:50.204Z,70.21
2019-04-28T09:06:19.147Z,70.03
2019-04-28T09:08:48.038Z,73.86
2019-04-28T09:11:17.284Z,77.08
2019-04-28T09:13:46.127Z,75.83
2019-04-28T09:16:15.020Z,73.09
2019-04-28T09:18:44.013Z,72.46
2019-04-28T09:21:12.905Z,74.60
2019-04-28T09:23:41.794Z,73.71
2019-04-28T09:26:10.992Z,73.65
2019-04-28T09:28:39.883Z,74.66
2019-04-28T09:31:10.054Z,72.87
2019-04-28T09:33:38.896Z,72.60
2019-04-28T09:36:08.608Z,72.25
2019-04-28T09:38:37.611Z,72.53
2019-04-28T09:41:07.798Z,71.47
2019-04-28T09:43:53.304Z,68.57
2019-04-28T09:46:23.729Z,70.00
2019-04-28T09:48:52.620Z,67.43
2019-04-28T09:51:21.510Z,67.21
2019-04-28T09:53:50.407Z,67.75
2019-04-28T09:56:19.396Z,66.28
2019-04-28T09:58:48.287Z,67.53
2019-04-28T10:01:17.179Z,64.50
2019-04-28T10:03:46.071Z,64.79
2019-04-28T10:06:14.964Z,63.24
2019-04-28T10:08:43.958Z,64.24
2019-04-28T10:11:12.849Z,65.67
2019-04-28T10:13:43.169Z,65.81
2019-04-28T10:16:12.061Z,67.38
2019-04-28T10:18:40.954Z,65.51
2019-04-28T10:21:10.869Z,63.97
2019-04-28T10:23:39.764Z,65.69
2019-04-28T10:26:09.777Z,66.40
2019-04-28T10:28:38.585Z,65.96
2019-04-28T10:31:08.792Z,66.73
2019-04-28T10:33:39.274Z,65.71
2019-04-28T10:36:08.416Z,63.91
2019-04-28T10:38:38.943Z,63.74
2019-04-28T10:41:10.968Z,63.08
2019-04-28T10:43:39.799Z,63.58
2019-04-28T10:46:09.714Z,61.96
2019-04-28T10:48:38.699Z,62.93
2019-04-28T10:51:08.524Z,65.37
2019-04-28T10:53:37.411Z,65.79
2019-04-28T10:56:06.302Z,68.80
2019-04-28T10:58:35.191Z,66.97
2019-04-28T11:01:04.188Z,66.40
2019-04-28T11:03:33.085Z,67.37
2019-04-28T11:06:01.973Z,67.17
2019-04-28T11:08:38.597Z,66.65
2019-04-28T11:11:10.349Z,65.99
2019-04-28T11:13:39.907Z,67.21
2019-04-28T11:16:11.149Z,66.05
2019-04-28T11:18:40.145Z,66.23
2019-04-28T11:21:09.962Z,68.14
2019-04-28T11:23:38.853Z,67.13
2019-04-28T11:26:08.675Z,67.16
2019-04-28T11:28:37.939Z,68.88
2019-04-28T11:31:07.980Z,67.47
2019-04-28T11:33:44.266Z,67.82
2019-04-28T11:36:14.673Z,71.58
2019-04-28T11:38:43.563Z,72.55
2019-04-28T11:41:12.971Z,74.34
2019-04-28T11:43:41.857Z,75.84
2019-04-28T11:46:12.797Z,77.71
2019-04-28T11:48:41.688Z,78.32
2019-04-28T11:51:11.705Z,76.79
2019-04-28T11:53:40.597Z,77.65
2019-04-28T11:56:10.000Z,78.66
2019-04-28T11:58:38.891Z,76.49
2019-04-28T12:01:09.932Z,75.88
2019-04-28T12:03:38.823Z,72.31
2019-04-28T12:06:08.638Z,74.85
2019-04-28T12:08:37.528Z,72.28
2019-04-28T12:11:13.891Z,75.81
2019-04-28T12:13:44.322Z,76.28
2019-04-28T12:16:30.109Z,76.53
2019-04-28T12:19:04.139Z,78.54
2019-04-28T12:21:33.318Z,76.09
2019-04-28T12:24:02.331Z,76.29
2019-04-28T12:26:31.203Z,77.32
2019-04-28T12:29:00.914Z,75.39
2019-04-28T12:31:30.010Z,74.41
2019-04-28T12:33:58.899Z,74.99
2019-04-28T12:36:27.910Z,73.92
2019-04-28T12:38:56.785Z,73.48
2019-04-28T12:41:25.574Z,73.53
2019-04-28T12:43:54.466Z,74.56
2019-04-28T12:46:23.357Z,72.88
2019-04-28T12:48:53.887Z,70.35
2019-04-28T12:51:24.313Z,71.57
2019-04-28T12:53:54.741Z,70.21
2019-04-28T12:56:23.635Z,68.35
2019-04-28T12:58:54.059Z,65.86
2019-04-28T13:01:30.521Z,65.71
2019-04-28T13:04:00.955Z,66.47
2019-04-28T13:06:29.848Z,65.32
2019-04-28T13:09:00.173Z,64.25
2019-04-28T13:11:29.069Z,64.36
2019-04-28T13:13:57.953Z,64.26
2019-04-28T13:16:26.846Z,65.23
2019-04-28T13:18:55.738Z,65.45
2019-04-28T13:21:24.628Z,66.70
2019-04-28T13:23:53.538Z,67.16
2019-04-28T13:26:22.420Z,66.49
2019-04-28T13:28:51.305Z,68.58
2019-04-28T13:31:20.201Z,68.58
2019-04-28T13:33:56.363Z,70.47
2019-04-28T13:36:22.891Z,70.81
2019-04-28T13:38:52.810Z,69.42
2019-04-28T13:41:21.805Z,68.72
2019-04-28T13:43:50.922Z,67.98
2019-04-28T13:46:19.788Z,67.68
2019-04-28T13:48:50.223Z,68.03
2019-04-28T13:51:20.641Z,70.54
2019-04-28T13:53:51.068Z,68.93
2019-04-28T13:56:21.844Z,71.32
2019-04-28T13:58:52.207Z,74.60
2019-04-28T14:01:28.698Z,73.27
2019-04-28T14:04:08.216Z,72.24
2019-04-28T14:06:38.790Z,70.72
2019-04-28T14:09:10.966Z,68.08
2019-04-28T14:11:39.827Z,69.64
2019-04-28T14:14:10.588Z,72.37
2019-04-28T14:16:39.401Z,72.37
2019-04-28T14:19:08.466Z,72.68
2019-04-28T14:21:37.338Z,70.84
2019-04-28T14:24:06.281Z,72.41
2019-04-28T14:26:35.295Z,71.38
2019-04-28T14:29:04.362Z,71.27
2019-04-28T14:31:33.213Z,72.20
2019-04-28T14:34:02.162Z,74.15
2019-04-28T14:36:41.454Z,74.76
2019-04-28T14:39:01.803Z,73.77
2019-04-28T14:41:30.723Z,72.13
2019-04-28T14:44:00.368Z,74.49
2019-04-28T14:46:29.324Z,73.00
2019-04-28T14:48:58.214Z,71.73
2019-04-28T14:51:28.622Z,70.21
2019-04-28T14:53:57.540Z,70.58
2019-04-28T14:56:29.085Z,72.16
2019-04-28T14:58:57.976Z,72.05
2019-04-28T15:01:37.209Z,72.24
2019-04-28T15:04:09.483Z,71.61
2019-04-28T15:06:55.821Z,72.08
2019-04-28T15:09:26.923Z,72.01
2019-04-28T15:11:57.354Z,70.76
2019-04-28T15:14:26.395Z,71.34
2019-04-28T15:16:55.338Z,71.03
2019-04-28T15:19:24.410Z,70.88
2019-04-28T15:21:54.691Z,69.64
2019-04-28T15:24:23.651Z,69.62
2019-04-28T15:26:52.543Z,70.42
2019-04-28T15:29:21.433Z,74.07
2019-04-28T15:31:50.425Z,69.79
2019-04-28T15:34:19.318Z,69.81
2019-04-28T15:36:48.208Z,70.73
2019-04-28T15:39:17.598Z,69.76
2019-04-28T15:41:46.623Z,70.82
2019-04-28T15:44:15.599Z,71.31
2019-04-28T15:46:44.601Z,72.27
2019-04-28T15:49:13.791Z,70.59
2019-04-28T15:51:42.712Z,71.36
2019-04-28T15:54:12.495Z,72.71
2019-04-28T15:56:43.229Z,71.62
2019-04-28T15:59:12.054Z,70.92
2019-04-28T16:01:41.105Z,71.93
2019-04-28T16:04:10.624Z,72.09
2019-04-28T16:06:39.512Z,73.02
2019-04-28T16:09:10.861Z,71.91
2019-04-28T16:11:39.959Z,73.58
2019-04-28T16:14:10.795Z,71.95
2019-04-28T16:16:40.121Z,71.71
2019-04-28T16:19:09.604Z,72.39
2019-04-28T16:21:38.594Z,71.59
2019-04-28T16:24:07.776Z,72.30
2019-04-28T16:26:36.816Z,72.25
2019-04-28T16:29:05.810Z,72.61
2019-04-28T16:31:34.837Z,71.88
2019-04-28T16:34:03.867Z,71.72
2019-04-28T16:36:32.879Z,72.89
2019-04-28T16:39:01.872Z,72.72
2019-04-28T16:41:31.975Z,73.17
2019-04-28T16:44:03.018Z,73.40
2019-04-28T16:46:32.052Z,72.14
2019-04-28T16:49:01.003Z,74.41
2019-04-28T16:51:30.208Z,74.00
2019-04-28T16:53:59.093Z,75.43
2019-04-28T16:56:29.692Z,74.20
2019-04-28T16:59:16.042Z,72.66
2019-04-28T17:01:58.796Z,71.97
2019-04-28T17:04:27.839Z,72.40
2019-04-28T17:06:56.728Z,74.73
2019-04-28T17:09:25.755Z,75.45
2019-04-28T17:11:54.615Z,77.67
2019-04-28T17:14:23.734Z,78.22
2019-04-28T17:16:53.730Z,80.53
2019-04-28T17:19:22.619Z,78.97
2019-04-28T17:21:51.613Z,79.49
2019-04-28T17:24:20.599Z,77.70
2019-04-28T17:26:49.499Z,78.34
2019-04-28T17:29:18.389Z,78.57
2019-04-28T17:31:47.280Z,77.83
2019-04-28T17:34:16.168Z,76.99
2019-04-28T17:36:46.493Z,77.09
2019-04-28T17:39:16.581Z,78.94
2019-04-28T17:41:45.610Z,79.46
2019-04-28T17:44:17.011Z,79.07
2019-04-28T17:46:45.139Z,77.52
2019-04-28T17:49:15.664Z,78.75
2019-04-28T17:51:44.556Z,77.77
2019-04-28T17:54:13.442Z,78.44
2019-04-28T17:56:42.334Z,79.15
2019-04-28T17:59:13.682Z,79.56
2019-04-28T18:01:46.744Z,79.36
2019-04-28T18:04:29.487Z,78.95
2019-04-28T18:06:59.913Z,78.60
2019-04-28T18:09:29.318Z,78.70
2019-04-28T18:11:58.211Z,78.53
2019-04-28T18:14:27.099Z,78.87
2019-04-28T18:17:13.753Z,78.58
2019-04-28T18:19:42.699Z,77.58
2019-04-28T18:22:12.512Z,77.94
2019-04-28T18:24:41.405Z,78.40
2019-04-28T18:27:10.910Z,78.80
2019-04-28T18:29:39.800Z,78.74
2019-04-28T18:32:25.793Z,78.18
2019-04-28T18:35:01.859Z,77.83
2019-04-28T18:37:48.663Z,78.34
2019-04-28T18:40:19.090Z,78.68
2019-04-28T18:42:50.562Z,78.25
2019-04-28T18:45:19.639Z,79.07
2019-04-28T18:47:48.528Z,79.12
2019-04-28T18:50:17.536Z,78.67
2019-04-28T18:52:46.524Z,79.05
2019-04-28T18:55:15.526Z,79.45
2019-04-28T18:57:44.508Z,79.56
2019-04-28T19:00:14.842Z,79.40
2019-04-28T19:02:45.261Z,79.30
2019-04-28T19:05:14.970Z,79.01
2019-04-28T19:07:48.466Z,80.18
2019-04-28T19:10:19.233Z,79.49
2019-04-28T19:12:58.720Z,79.48
2019-04-28T19:15:45.354Z,79.16
2019-04-28T19:18:21.811Z,80.00
2019-04-28T19:20:50.712Z,81.34
2019-04-28T19:23:19.601Z,81.57
2019-04-28T19:25:48.492Z,80.68
2019-04-28T19:28:17.385Z,80.68
2019-04-28T19:30:46.274Z,80.46
2019-04-28T19:33:15.164Z,80.28
2019-04-28T19:35:44.058Z,80.65
2019-04-28T19:38:12.947Z,79.21
2019-04-28T19:40:41.839Z,79.14
2019-04-28T19:43:11.464Z,78.93
2019-04-28T19:45:41.872Z,79.37
2019-04-28T19:48:11.787Z,79.41
2019-04-28T19:50:40.679Z,79.19
2019-04-28T19:53:09.674Z,79.41
2019-04-28T19:55:42.863Z,79.94
2019-04-28T19:58:30.402Z,81.54
2019-04-28T20:01:03.793Z,81.00
2019-04-28T20:03:32.833Z,80.30
2019-04-28T20:06:01.776Z,81.04
2019-04-28T20:08:30.667Z,81.28
2019-04-28T20:10:59.580Z,81.16
2019-04-28T20:13:31.301Z,81.89
2019-04-28T20:15:59.080Z,81.25
2019-04-28T20:18:29.629Z,80.22
2019-04-28T20:20:58.585Z,79.99
2019-04-28T20:23:27.393Z,79.12
2019-04-28T20:25:56.286Z,79.97
2019-04-28T20:28:25.177Z,79.76
2019-04-28T20:30:54.067Z,79.25
2019-04-28T20:33:22.959Z,79.64
2019-04-28T20:36:03.335Z,79.57
2019-04-28T20:38:33.438Z,79.99
2019-04-28T20:41:09.800Z,80.18
2019-04-28T20:43:38.586Z,80.55
2019-04-28T20:46:07.703Z,80.63
2019-04-28T20:48:36.583Z,81.00
2019-04-28T20:51:05.474Z,81.18
2019-04-28T20:53:34.370Z,81.42
2019-04-28T20:56:03.463Z,81.24
2019-04-28T20:58:32.353Z,81.56
2019-04-28T21:01:01.243Z,81.86
2019-04-28T21:03:30.238Z,81.54
2019-04-28T21:05:59.129Z,81.28
2019-04-28T21:08:28.017Z,81.55
2019-04-28T21:10:56.910Z,81.90
2019-04-28T21:13:25.799Z,82.62
2019-04-28T21:15:54.603Z,82.18
2019-04-28T21:18:23.481Z,82.29
2019-04-28T21:20:52.376Z,82.60
2019-04-28T21:23:22.797Z,82.96
2019-04-28T21:25:51.689Z,82.90
2019-04-28T21:28:20.580Z,82.53
2019-04-28T21:30:49.471Z,82.49
2019-04-28T21:33:18.362Z,82.40
2019-04-28T21:35:47.257Z,82.14
2019-04-28T21:38:16.147Z,81.94
2019-04-28T21:40:45.035Z,81.76
2019-04-28T21:43:27.753Z,81.23
2019-04-28T21:45:58.178Z,80.59
2019-04-28T21:48:37.718Z,80.80
2019-04-28T21:51:07.638Z,80.55
2019-04-28T21:53:36.536Z,80.75
2019-04-28T21:56:05.622Z,80.96
2019-04-28T21:58:34.617Z,81.35
2019-04-28T22:01:04.326Z,81.49
2019-04-28T22:03:33.318Z,81.38
2019-04-28T22:06:02.227Z,81.81
2019-04-28T22:08:31.104Z,82.10
2019-04-28T22:10:59.995Z,82.23
2019-04-28T22:13:28.884Z,81.85
2019-04-28T22:15:57.776Z,81.76
2019-04-28T22:18:26.671Z,81.88
2019-04-28T22:20:55.579Z,81.70
2019-04-28T22:23:42.474Z,80.48
2019-04-28T22:26:13.103Z,82.17
2019-04-28T22:28:41.998Z,81.43
2019-04-28T22:31:11.707Z,82.29
2019-04-28T22:33:40.597Z,82.34
2019-04-28T22:36:09.999Z,82.12
2019-04-28T22:38:38.889Z,82.25
2019-04-28T22:41:08.729Z,82.31
2019-04-28T22:43:39.231Z,82.29
2019-04-28T22:46:09.146Z,82.02
2019-04-28T22:48:38.039Z,82.17
2019-04-28T22:51:07.748Z,81.93
2019-04-28T22:53:38.176Z,81.96
2019-04-28T22:56:11.547Z,81.69
2019-04-28T22:58:45.175Z,81.63
2019-04-28T23:01:15.603Z,81.88
2019-04-28T23:03:46.223Z,81.33
2019-04-28T23:06:15.228Z,82.29
2019-04-28T23:08:44.116Z,81.35
2019-04-28T23:11:13.021Z,82.04
2019-04-28T23:13:41.903Z,82.29
2019-04-28T23:16:12.023Z,82.28
2019-04-28T23:18:41.013Z,81.72
2019-04-28T23:21:11.970Z,81.85
2019-04-28T23:23:40.844Z,83.09
2019-04-28T23:26:09.940Z,85.06
2019-04-28T23:28:38.830Z,84.37
2019-04-28T23:31:08.439Z,82.99
2019-04-28T23:33:37.228Z,82.34
2019-04-28T23:36:07.661Z,82.04
2019-04-28T23:38:36.545Z,83.19
2019-04-28T23:41:12.835Z,83.07
2019-04-28T23:43:43.136Z,82.23
2019-04-28T23:46:12.436Z,82.83
2019-04-28T23:48:41.327Z,82.74
2019-04-28T23:51:27.523Z,83.32
2019-04-28T23:54:03.666Z,83.21
2019-04-28T23:56:32.576Z,83.74
2019-04-28T23:59:01.467Z,83.35
